createdAt,value
2018-07-06T00:00:07.241Z,100323.94
2018-07-06T00:02:52.484Z,100324.92
2018-07-06T00:05:31.865Z,100325.62
2018-07-06T00:08:16.938Z,100325.95
2018-07-06T00:11:02.150Z,100326.39
2018-07-06T00:13:47.157Z,100331.02
2018-07-06T00:16:32.258Z,100331.96
2018-07-06T00:19:17.320Z,100328.16
2018-07-06T00:22:02.503Z,100335.81
2018-07-06T00:24:47.571Z,100335.97
2018-07-06T00:27:32.765Z,100334.75
2018-07-06T00:30:17.961Z,100339.90
2018-07-06T00:33:03.102Z,100339.94
2018-07-06T00:35:48.234Z,100343.17
2018-07-06T00:38:33.503Z,100346.34
2018-07-06T00:41:18.640Z,100350.25
2018-07-06T00:44:03.706Z,100350.81
2018-07-06T00:46:48.799Z,100354.25
2018-07-06T00:49:34.128Z,100352.97
2018-07-06T00:52:19.760Z,100359.18
2018-07-06T00:55:05.093Z,100355.05
2018-07-06T00:57:50.899Z,100360.86
2018-07-06T01:00:30.360Z,100368.53
2018-07-06T01:03:15.462Z,100363.00
2018-07-06T01:06:00.557Z,100370.18
2018-07-06T01:08:45.725Z,100365.08
2018-07-06T01:11:31.124Z,100363.19
2018-07-06T01:14:16.229Z,100364.97
2018-07-06T01:17:01.310Z,100363.33
2018-07-06T01:19:46.370Z,100357.70
2018-07-06T01:22:31.503Z,100361.48
2018-07-06T01:25:16.693Z,100373.85
2018-07-06T01:28:01.845Z,100368.67
2018-07-06T01:30:46.909Z,100377.69
2018-07-06T01:33:32.181Z,100372.70
2018-07-06T01:36:17.277Z,100377.91
2018-07-06T01:39:02.503Z,100376.23
2018-07-06T01:41:47.760Z,100374.84
2018-07-06T01:44:32.957Z,100374.01
2018-07-06T01:47:18.228Z,100376.79
2018-07-06T01:50:03.565Z,100377.20
2018-07-06T01:52:48.909Z,100381.06
2018-07-06T01:55:34.308Z,100381.38
2018-07-06T01:58:19.747Z,100372.76
2018-07-06T02:01:04.742Z,100386.56
2018-07-06T02:03:49.893Z,100381.95
2018-07-06T02:06:35.140Z,100377.08
2018-07-06T02:09:20.513Z,100383.11
2018-07-06T02:11:59.743Z,100386.20
2018-07-06T02:14:44.920Z,100382.30
2018-07-06T02:17:30.049Z,100382.04
2018-07-06T02:20:15.422Z,100380.81
2018-07-06T02:23:00.944Z,100383.17
2018-07-06T02:25:45.958Z,100389.92
2018-07-06T02:28:31.132Z,100388.00
2018-07-06T02:31:16.481Z,100383.38
2018-07-06T02:34:01.557Z,100386.88
2018-07-06T02:36:46.622Z,100392.38
2018-07-06T02:39:31.789Z,100390.76
2018-07-06T02:42:17.093Z,100391.64
2018-07-06T02:45:02.248Z,100396.80
2018-07-06T02:47:41.648Z,100402.89
2018-07-06T02:50:26.849Z,100399.72
2018-07-06T02:53:11.945Z,100406.49
2018-07-06T02:55:57.215Z,100416.34
2018-07-06T02:58:42.326Z,100406.88
2018-07-06T03:01:27.494Z,100411.62
2018-07-06T03:04:12.717Z,100407.36
2018-07-06T03:06:57.827Z,100413.14
2018-07-06T03:09:42.985Z,100413.34
2018-07-06T03:12:28.061Z,100415.05
2018-07-06T03:15:13.201Z,100407.23
2018-07-06T03:17:58.490Z,100411.39
2018-07-06T03:20:43.839Z,100413.25
2018-07-06T03:23:28.921Z,100419.11
2018-07-06T03:26:14.078Z,100416.41
2018-07-06T03:28:59.205Z,100424.14
2018-07-06T03:31:44.398Z,100420.00
2018-07-06T03:34:29.386Z,100418.17
2018-07-06T03:37:14.660Z,100422.12
2018-07-06T03:39:59.783Z,100424.63
2018-07-06T03:42:45.017Z,100427.15
2018-07-06T03:45:29.989Z,100429.06
2018-07-06T03:48:15.074Z,100428.53
2018-07-06T03:51:00.289Z,100431.41
2018-07-06T03:53:46.177Z,100438.81
2018-07-06T03:56:31.416Z,100439.99
2018-07-06T03:59:16.681Z,100446.13
2018-07-06T04:02:01.841Z,100447.25
2018-07-06T04:04:47.065Z,100441.91
2018-07-06T04:07:32.085Z,100449.52
2018-07-06T04:10:17.363Z,100452.12
2018-07-06T04:13:02.464Z,100451.42
2018-07-06T04:15:47.621Z,100448.27
2018-07-06T04:18:32.615Z,100453.06
2018-07-06T04:21:17.701Z,100461.58
2018-07-06T04:24:02.938Z,100462.41
2018-07-06T04:26:48.122Z,100467.09
2018-07-06T04:29:33.337Z,100468.22
2018-07-06T04:32:18.378Z,100469.52
2018-07-06T04:35:03.577Z,100474.80
2018-07-06T04:37:49.123Z,100476.39
2018-07-06T04:40:34.312Z,100480.80
2018-07-06T04:43:13.565Z,100483.20
2018-07-06T04:45:58.890Z,100490.39
2018-07-06T04:48:44.177Z,100495.21
2018-07-06T04:51:29.275Z,100494.20
2018-07-06T04:54:14.332Z,100494.37
2018-07-06T04:56:59.544Z,100498.16
2018-07-06T04:59:44.923Z,100495.88
2018-07-06T05:02:30.224Z,100504.63
2018-07-06T05:05:15.252Z,100501.23
2018-07-06T05:08:00.830Z,100496.30
2018-07-06T05:10:46.109Z,100498.69
2018-07-06T05:13:31.469Z,100502.52
2018-07-06T05:16:16.821Z,100502.63
2018-07-06T05:19:01.918Z,100505.05
2018-07-06T05:21:46.981Z,100508.34
2018-07-06T05:24:32.209Z,100504.81
2018-07-06T05:27:17.217Z,100508.82
2018-07-06T05:30:02.378Z,100507.63
2018-07-06T05:32:47.769Z,100502.27
2018-07-06T05:35:32.902Z,100502.70
2018-07-06T05:38:18.013Z,100508.66
2018-07-06T05:41:03.073Z,100514.93
2018-07-06T05:43:48.164Z,100517.80
2018-07-06T05:46:33.565Z,100520.18
2018-07-06T05:49:18.728Z,100523.08
2018-07-06T05:52:03.921Z,100527.52
2018-07-06T05:54:49.012Z,100526.65
2018-07-06T05:57:34.201Z,100528.94
2018-07-06T06:00:19.437Z,100534.86
2018-07-06T06:02:58.669Z,100533.33
2018-07-06T06:05:43.849Z,100540.12
2018-07-06T06:08:10.284Z,100535.03
2018-07-06T06:10:38.197Z,100538.31
2018-07-06T06:13:06.313Z,100539.53
2018-07-06T06:15:34.229Z,100549.98
2018-07-06T06:18:02.157Z,100542.34
2018-07-06T06:20:30.094Z,100552.22
2018-07-06T06:22:57.959Z,100547.77
2018-07-06T06:25:25.898Z,100553.38
2018-07-06T06:27:53.770Z,100554.92
2018-07-06T06:30:21.690Z,100559.52
2018-07-06T06:32:49.763Z,100556.72
2018-07-06T06:35:17.756Z,100546.00
2018-07-06T06:37:45.821Z,100557.60
2018-07-06T06:40:13.700Z,100560.33
2018-07-06T06:42:41.650Z,100563.97
2018-07-06T06:45:09.821Z,100567.00
2018-07-06T06:47:39.245Z,100563.48
2018-07-06T06:50:07.405Z,100567.13
2018-07-06T06:52:35.816Z,100568.98
2018-07-06T06:55:03.910Z,100569.78
2018-07-06T06:57:31.892Z,100573.89
2018-07-06T06:59:59.973Z,100578.21
2018-07-06T07:02:27.960Z,100579.37
2018-07-06T07:04:55.868Z,100578.00
2018-07-06T07:07:23.888Z,100581.12
2018-07-06T07:09:51.786Z,100574.97
2018-07-06T07:12:19.766Z,100576.69
2018-07-06T07:14:47.758Z,100573.80
2018-07-06T07:17:15.846Z,100571.82
2018-07-06T07:19:43.941Z,100574.06
2018-07-06T07:22:11.948Z,100574.06
2018-07-06T07:24:40.108Z,100573.70
2018-07-06T07:27:08.062Z,100581.01
2018-07-06T07:29:36.049Z,100576.16
2018-07-06T07:32:03.989Z,100585.84
2018-07-06T07:34:31.942Z,100591.56
2018-07-06T07:36:59.825Z,100585.86
2018-07-06T07:39:27.725Z,100598.17
2018-07-06T07:41:55.759Z,100588.28
2018-07-06T07:44:23.765Z,100595.57
2018-07-06T07:46:51.825Z,100594.78
2018-07-06T07:49:19.729Z,100592.87
2018-07-06T07:52:07.356Z,100603.30
2018-07-06T07:54:42.643Z,100609.47
2018-07-06T07:57:10.633Z,100609.07
2018-07-06T07:59:39.352Z,100608.24
2018-07-06T08:02:07.405Z,100606.78
2018-07-06T08:04:35.421Z,100611.39
2018-07-06T08:07:03.421Z,100609.92
2018-07-06T08:09:32.244Z,100611.62
2018-07-06T08:12:01.478Z,100620.13
2018-07-06T08:14:29.511Z,100616.41
2018-07-06T08:16:57.429Z,100618.01
2018-07-06T08:19:25.401Z,100618.22
2018-07-06T08:21:53.492Z,100625.45
2018-07-06T08:24:21.581Z,100629.31
2018-07-06T08:26:49.665Z,100629.63
2018-07-06T08:29:17.536Z,100634.34
2018-07-06T08:31:45.684Z,100636.63
2018-07-06T08:34:30.925Z,100633.83
2018-07-06T08:37:44.739Z,100645.16
2018-07-06T08:40:12.840Z,100646.49
2018-07-06T08:42:44.113Z,100641.06
2018-07-06T08:45:12.397Z,100656.88
2018-07-06T08:47:40.700Z,100648.27
2018-07-06T08:50:08.894Z,100643.52
2018-07-06T08:52:37.607Z,100654.11
2018-07-06T08:55:05.929Z,100654.34
2018-07-06T08:57:34.487Z,100654.76
2018-07-06T09:00:02.408Z,100650.90
2018-07-06T09:02:30.333Z,100661.79
2018-07-06T09:04:59.050Z,100653.70
2018-07-06T09:07:27.033Z,100654.27
2018-07-06T09:09:55.713Z,100659.47
2018-07-06T09:12:23.644Z,100660.63
2018-07-06T09:14:51.581Z,100660.43
2018-07-06T09:17:20.157Z,100654.18
2018-07-06T09:19:48.459Z,100659.71
2018-07-06T09:22:16.849Z,100664.05
2018-07-06T09:24:45.684Z,100654.83
2018-07-06T09:27:13.701Z,100662.20
2018-07-06T09:29:41.712Z,100655.07
2018-07-06T09:32:09.734Z,100655.80
2018-07-06T09:34:37.837Z,100645.94
2018-07-06T09:37:06.081Z,100656.96
2018-07-06T09:39:33.896Z,100650.52
2018-07-06T09:42:02.014Z,100651.92
2018-07-06T09:44:30.013Z,100648.25
2018-07-06T09:46:58.077Z,100651.78
2018-07-06T09:49:26.066Z,100641.81
2018-07-06T09:51:54.270Z,100654.11
2018-07-06T09:54:22.157Z,100645.75
2018-07-06T09:56:50.097Z,100644.02
2018-07-06T09:59:18.021Z,100645.10
2018-07-06T10:01:45.970Z,100642.33
2018-07-06T10:04:13.835Z,100639.11
2018-07-06T10:06:41.756Z,100641.77
2018-07-06T10:09:10.229Z,100639.84
2018-07-06T10:11:38.158Z,100627.72
2018-07-06T10:14:06.084Z,100627.87
2018-07-06T10:16:34.065Z,100635.91
2018-07-06T10:19:01.984Z,100622.98
2018-07-06T10:21:29.792Z,100628.31
2018-07-06T10:23:57.676Z,100631.45
2018-07-06T10:26:25.534Z,100628.61
2018-07-06T10:30:13.326Z,100624.92
2018-07-06T10:32:41.186Z,100633.67
2018-07-06T10:35:08.992Z,100631.13
2018-07-06T10:37:36.869Z,100625.88
2018-07-06T10:40:05.091Z,100622.81
2018-07-06T10:42:32.827Z,100628.49
2018-07-06T10:45:00.738Z,100632.38
2018-07-06T10:47:28.644Z,100628.09
2018-07-06T10:49:56.529Z,100623.00
2018-07-06T10:52:24.435Z,100615.73
2018-07-06T10:54:52.397Z,100616.55
2018-07-06T10:57:20.209Z,100629.29
2018-07-06T10:59:48.075Z,100623.37
2018-07-06T11:02:15.860Z,100630.94
2018-07-06T11:04:43.800Z,100630.32
2018-07-06T11:07:11.709Z,100634.02
2018-07-06T11:09:39.497Z,100636.85
2018-07-06T11:12:07.353Z,100625.62
2018-07-06T11:14:35.277Z,100636.38
2018-07-06T11:17:03.242Z,100629.27
2018-07-06T11:19:31.121Z,100634.31
2018-07-06T11:21:59.002Z,100628.43
2018-07-06T11:24:26.896Z,100626.05
2018-07-06T11:26:54.788Z,100621.13
2018-07-06T11:29:22.681Z,100629.05
2018-07-06T11:31:50.508Z,100618.57
2018-07-06T11:34:18.398Z,100630.34
2018-07-06T11:36:46.309Z,100619.89
2018-07-06T11:39:14.225Z,100612.83
2018-07-06T11:41:42.220Z,100613.77
2018-07-06T11:44:10.137Z,100619.20
2018-07-06T11:46:38.078Z,100626.92
2018-07-06T11:49:06.026Z,100620.73
2018-07-06T11:51:33.969Z,100627.48
2018-07-06T11:54:01.930Z,100620.34
2018-07-06T11:56:29.805Z,100623.14
2018-07-06T11:58:57.756Z,100614.08
2018-07-06T12:01:25.649Z,100611.11
2018-07-06T12:03:53.530Z,100611.41
2018-07-06T12:06:21.549Z,100617.44
2018-07-06T12:08:49.537Z,100609.07
2018-07-06T12:11:17.409Z,100615.58
2018-07-06T12:13:45.280Z,100615.45
2018-07-06T12:16:13.216Z,100607.92
2018-07-06T12:18:41.096Z,100604.50
2018-07-06T12:21:09.073Z,100601.48
2018-07-06T12:23:36.999Z,100607.28
2018-07-06T12:26:04.997Z,100613.69
2018-07-06T12:28:32.874Z,100615.44
2018-07-06T12:31:00.869Z,100616.47
2018-07-06T12:33:28.722Z,100614.08
2018-07-06T12:35:56.596Z,100608.80
2018-07-06T12:38:24.512Z,100609.91
2018-07-06T12:40:52.601Z,100605.27
2018-07-06T12:43:21.383Z,100605.67
2018-07-06T12:45:49.311Z,100606.35
2018-07-06T12:48:17.236Z,100599.60
2018-07-06T12:50:49.588Z,100599.56
2018-07-06T12:53:17.544Z,100604.64
2018-07-06T12:55:45.441Z,100607.61
2018-07-06T12:58:13.372Z,100595.80
2018-07-06T13:00:41.183Z,100597.27
2018-07-06T13:03:09.076Z,100602.15
2018-07-06T13:05:38.116Z,100603.03
2018-07-06T13:08:06.013Z,100601.77
2018-07-06T13:10:34.013Z,100603.50
2018-07-06T13:13:01.857Z,100611.03
2018-07-06T13:15:29.740Z,100607.73
2018-07-06T13:17:57.829Z,100614.09
2018-07-06T13:20:25.701Z,100619.31
2018-07-06T13:22:53.488Z,100618.98
2018-07-06T13:25:21.375Z,100624.84
2018-07-06T13:27:49.268Z,100615.67
2018-07-06T13:30:17.197Z,100618.83
2018-07-06T13:32:45.212Z,100612.61
2018-07-06T13:35:13.093Z,100619.78
2018-07-06T13:37:40.965Z,100620.81
2018-07-06T13:40:08.898Z,100623.83
2018-07-06T13:42:36.772Z,100619.81
2018-07-06T13:45:04.723Z,100618.12
2018-07-06T13:47:33.055Z,100611.77
2018-07-06T13:50:02.003Z,100616.27
2018-07-06T13:52:29.845Z,100623.21
2018-07-06T13:54:57.641Z,100618.94
2018-07-06T13:57:25.649Z,100619.34
2018-07-06T13:59:53.470Z,100613.25
2018-07-06T14:02:21.369Z,100615.81
2018-07-06T14:04:49.284Z,100616.50
2018-07-06T14:07:17.253Z,100618.99
2018-07-06T14:09:45.133Z,100613.67
2018-07-06T14:12:13.093Z,100622.84
2018-07-06T14:14:41.057Z,100625.73
2018-07-06T14:17:09.023Z,100627.52
2018-07-06T14:19:36.933Z,100627.39
2018-07-06T14:22:04.849Z,100627.08
2018-07-06T14:24:32.751Z,100628.50
2018-07-06T14:27:00.668Z,100624.36
2018-07-06T14:29:28.904Z,100619.73
2018-07-06T14:31:57.061Z,100620.20
2018-07-06T14:34:24.941Z,100625.91
2018-07-06T14:36:52.908Z,100620.77
2018-07-06T14:39:20.827Z,100614.53
2018-07-06T14:41:48.766Z,100625.45
2018-07-06T14:44:16.649Z,100614.39
2018-07-06T14:46:45.126Z,100621.78
2018-07-06T14:49:13.037Z,100618.97
2018-07-06T14:51:41.357Z,100624.14
2018-07-06T14:54:09.209Z,100621.91
2018-07-06T14:56:37.066Z,100615.80
2018-07-06T14:59:05.752Z,100621.02
2018-07-06T15:01:34.105Z,100620.51
2018-07-06T15:04:02.640Z,100628.98
2018-07-06T15:06:31.157Z,100625.70
2018-07-06T15:08:59.029Z,100625.72
2018-07-06T15:11:26.873Z,100632.25
2018-07-06T15:13:54.765Z,100637.26
2018-07-06T15:16:22.666Z,100630.02
2018-07-06T15:18:50.537Z,100629.06
2018-07-06T15:21:18.457Z,100644.14
2018-07-06T15:23:46.361Z,100642.05
2018-07-06T15:26:14.310Z,100646.22
2018-07-06T15:28:42.248Z,100653.20
2018-07-06T15:31:10.182Z,100647.66
2018-07-06T15:33:38.087Z,100654.36
2018-07-06T15:36:05.985Z,100659.70
2018-07-06T15:38:33.876Z,100656.86
2018-07-06T15:41:01.769Z,100656.11
2018-07-06T15:43:29.657Z,100670.91
2018-07-06T15:45:57.538Z,100671.16
2018-07-06T15:48:25.362Z,100671.58
2018-07-06T15:50:53.351Z,100672.70
2018-07-06T15:53:21.233Z,100684.91
2018-07-06T15:55:49.378Z,100681.13
2018-07-06T15:58:17.229Z,100683.61
2018-07-06T16:00:45.149Z,100683.30
2018-07-06T16:03:13.045Z,100683.27
2018-07-06T16:05:41.025Z,100684.88
2018-07-06T16:08:08.940Z,100682.34
2018-07-06T16:10:36.857Z,100689.62
2018-07-06T16:13:04.708Z,100683.25
2018-07-06T16:15:32.582Z,100689.64
2018-07-06T16:18:00.813Z,100684.75
2018-07-06T16:20:28.716Z,100684.98
2018-07-06T16:22:56.643Z,100682.59
2018-07-06T16:25:26.482Z,100679.31
2018-07-06T16:27:54.481Z,100678.60
2018-07-06T16:30:22.294Z,100681.65
2018-07-06T16:32:50.225Z,100680.13
2018-07-06T16:35:18.101Z,100688.70
2018-07-06T16:37:45.997Z,100687.26
2018-07-06T16:40:13.896Z,100683.67
2018-07-06T16:42:41.803Z,100677.13
2018-07-06T16:45:09.669Z,100685.06
2018-07-06T16:47:37.594Z,100683.73
2018-07-06T16:50:05.526Z,100677.89
2018-07-06T16:52:33.532Z,100677.44
2018-07-06T16:55:01.514Z,100681.66
2018-07-06T16:57:29.464Z,100687.66
2018-07-06T16:59:57.457Z,100687.44
2018-07-06T17:02:25.261Z,100694.37
2018-07-06T17:04:53.131Z,100683.02
2018-07-06T17:07:21.171Z,100700.50
2018-07-06T17:09:49.097Z,100701.08
2018-07-06T17:12:17.077Z,100703.06
2018-07-06T17:14:45.032Z,100698.25
2018-07-06T17:17:12.993Z,100701.43
2018-07-06T17:19:40.934Z,100702.25
2018-07-06T17:22:08.849Z,100705.88
2018-07-06T17:24:36.883Z,100713.61
2018-07-06T17:27:04.839Z,100717.48
2018-07-06T17:29:33.037Z,100719.38
2018-07-06T17:32:01.043Z,100724.95
2018-07-06T17:34:29.802Z,100724.75
2018-07-06T17:36:58.550Z,100723.80
2018-07-06T17:39:26.473Z,100726.23
2018-07-06T17:41:54.390Z,100726.05
2018-07-06T17:44:22.431Z,100724.47
2018-07-06T17:46:50.325Z,100729.47
2018-07-06T17:49:19.099Z,100730.08
2018-07-06T17:51:47.019Z,100737.52
2018-07-06T17:54:15.815Z,100735.27
2018-07-06T17:56:44.186Z,100730.23
2018-07-06T17:59:12.330Z,100734.20
2018-07-06T18:01:40.375Z,100732.21
2018-07-06T18:04:08.904Z,100743.44
2018-07-06T18:06:37.482Z,100739.85
2018-07-06T18:09:05.989Z,100754.58
2018-07-06T18:11:33.914Z,100751.92
2018-07-06T18:14:02.012Z,100759.77
2018-07-06T18:16:31.218Z,100752.59
2018-07-06T18:18:59.245Z,100756.63
2018-07-06T18:21:27.393Z,100753.45
2018-07-06T18:23:57.060Z,100757.37
2018-07-06T18:26:25.034Z,100759.00
2018-07-06T18:28:53.025Z,100759.13
2018-07-06T18:31:21.249Z,100768.16
2018-07-06T18:33:49.546Z,100757.53
2018-07-06T18:36:17.625Z,100759.04
2018-07-06T18:38:46.479Z,100760.45
2018-07-06T18:41:15.943Z,100759.70
2018-07-06T18:43:44.085Z,100759.55
2018-07-06T18:46:12.148Z,100766.44
2018-07-06T18:48:40.049Z,100768.01
2018-07-06T18:51:08.030Z,100774.94
2018-07-06T18:53:35.977Z,100774.37
2018-07-06T18:56:03.969Z,100768.69
2018-07-06T18:58:32.204Z,100774.60
2018-07-06T19:01:00.222Z,100771.63
2018-07-06T19:03:28.181Z,100776.89
2018-07-06T19:05:56.466Z,100782.89
2018-07-06T19:08:24.505Z,100779.66
2018-07-06T19:10:52.681Z,100787.47
2018-07-06T19:13:21.164Z,100784.77
2018-07-06T19:15:49.517Z,100790.89
2018-07-06T19:18:17.728Z,100790.45
2018-07-06T19:20:45.774Z,100792.36
2018-07-06T19:23:14.748Z,100789.95
2018-07-06T19:25:43.389Z,100793.34
2018-07-06T19:28:11.409Z,100796.55
2018-07-06T19:30:40.241Z,100807.57
2018-07-06T19:33:08.281Z,100806.45
2018-07-06T19:35:36.390Z,100808.91
2018-07-06T19:38:05.028Z,100812.03
2018-07-06T19:40:33.274Z,100809.56
2018-07-06T19:43:01.247Z,100811.98
2018-07-06T19:45:29.306Z,100810.14
2018-07-06T19:47:57.181Z,100821.44
2018-07-06T19:50:25.038Z,100825.38
2018-07-06T19:52:53.769Z,100820.28
2018-07-06T19:55:21.814Z,100826.52
2018-07-06T19:57:49.658Z,100831.19
2018-07-06T20:00:17.574Z,100832.15
2018-07-06T20:02:45.562Z,100842.47
2018-07-06T20:05:13.602Z,100846.94
2018-07-06T20:07:42.235Z,100846.69
2018-07-06T20:10:10.357Z,100853.67
2018-07-06T20:12:41.054Z,100856.66
2018-07-06T20:15:19.252Z,100859.31
2018-07-06T20:17:48.622Z,100860.09
2018-07-06T20:20:18.910Z,100860.98
2018-07-06T20:22:46.863Z,100870.36
2018-07-06T20:25:15.509Z,100873.66
2018-07-06T20:27:43.541Z,100878.47
2018-07-06T20:30:12.424Z,100876.16
2018-07-06T20:32:40.761Z,100874.03
2018-07-06T20:35:08.647Z,100885.09
2018-07-06T20:37:36.750Z,100887.48
2018-07-06T20:40:04.908Z,100888.97
2018-07-06T20:42:38.009Z,100883.08
2018-07-06T20:45:06.986Z,100893.45
2018-07-06T20:47:35.026Z,100887.02
2018-07-06T20:50:03.613Z,100893.80
2018-07-06T20:52:32.066Z,100890.38
2018-07-06T20:55:00.104Z,100894.63
2018-07-06T20:57:28.441Z,100899.45
2018-07-06T20:59:56.358Z,100898.25
2018-07-06T21:02:24.437Z,100898.40
2018-07-06T21:04:52.514Z,100898.02
2018-07-06T21:07:20.457Z,100908.21
2018-07-06T21:09:48.450Z,100907.88
2018-07-06T21:12:16.916Z,100908.03
2018-07-06T21:14:44.817Z,100906.75
2018-07-06T21:17:14.619Z,100911.99
2018-07-06T21:19:42.688Z,100912.37
2018-07-06T21:22:10.660Z,100916.37
2018-07-06T21:24:41.831Z,100917.23
2018-07-06T21:27:10.386Z,100923.39
2018-07-06T21:29:40.034Z,100926.45
2018-07-06T21:32:07.924Z,100921.92
2018-07-06T21:34:35.869Z,100927.59
2018-07-06T21:37:03.895Z,100921.44
2018-07-06T21:39:31.749Z,100921.97
2018-07-06T21:41:59.833Z,100921.55
2018-07-06T21:44:27.690Z,100924.38
2018-07-06T21:46:56.242Z,100928.86
2018-07-06T21:49:24.670Z,100928.86
2018-07-06T21:51:54.899Z,100935.29
2018-07-06T21:54:23.995Z,100932.72
2018-07-06T21:56:52.074Z,100935.50
2018-07-06T21:59:20.016Z,100937.03
2018-07-06T22:01:48.862Z,100938.11
2018-07-06T22:04:20.639Z,100936.34
2018-07-06T22:06:50.583Z,100941.98
2018-07-06T22:09:18.538Z,100942.84
2018-07-06T22:11:48.401Z,100941.64
2018-07-06T22:14:23.188Z,100945.47
2018-07-06T22:17:00.933Z,100946.41
2018-07-06T22:19:28.860Z,100945.31
2018-07-06T22:21:56.820Z,100949.91
2018-07-06T22:24:25.192Z,100951.47
2018-07-06T22:26:53.369Z,100959.27
2018-07-06T22:29:21.317Z,100964.19
2018-07-06T22:31:49.697Z,100958.41
2018-07-06T22:34:18.516Z,100961.02
2018-07-06T22:36:46.410Z,100961.52
2018-07-06T22:39:14.334Z,100965.80
2018-07-06T22:41:42.257Z,100965.80
2018-07-06T22:44:10.289Z,100962.80
2018-07-06T22:46:38.300Z,100958.40
2018-07-06T22:49:06.453Z,100959.52
2018-07-06T22:51:34.358Z,100957.09
2018-07-06T22:54:02.583Z,100951.22
2018-07-06T22:56:30.693Z,100954.86
2018-07-06T22:58:58.606Z,100957.69
2018-07-06T23:01:27.625Z,100957.41
2018-07-06T23:03:55.696Z,100962.98
2018-07-06T23:06:24.160Z,100951.94
2018-07-06T23:08:52.501Z,100958.58
2018-07-06T23:11:21.171Z,100959.38
2018-07-06T23:13:49.175Z,100966.11
2018-07-06T23:16:23.631Z,100967.20
2018-07-06T23:18:55.272Z,100966.44
2018-07-06T23:21:26.897Z,100970.90
2018-07-06T23:23:56.004Z,100974.49
2018-07-06T23:26:23.991Z,100965.38
2018-07-06T23:28:51.807Z,100968.67
2018-07-06T23:31:19.717Z,100973.14
2018-07-06T23:33:47.605Z,100971.50
2018-07-06T23:36:15.504Z,100980.38
2018-07-06T23:38:43.338Z,100972.34
2018-07-06T23:41:11.268Z,100970.95
2018-07-06T23:43:39.208Z,100972.07
2018-07-06T23:46:07.097Z,100972.64
2018-07-06T23:48:34.905Z,100973.76
2018-07-06T23:51:02.800Z,100977.92
2018-07-06T23:53:30.709Z,100976.53
2018-07-06T23:55:58.572Z,100983.18
2018-07-06T23:58:26.476Z,100980.42
